YNWN

Details ICAO YNWN (ZNE)
Name Newman
Region Australia
Timezone Australia/Perth (UTC+8.0)
Plans Departing 9
Arriving 13
Stats Elevation 1,724 ft / 525 m (AMSL)
Location -23.417800° 119.803000°
Runways 1
Magnetic Variation 1.226° E
Sunrise 2018-12-09 21:08:40 UTC / 2018-12-10 05:08:40 Local
Sunset 2018-12-10 10:40:55 UTC / 2018-12-10 18:40:55 Local
Advertisement - Login to hide

Runways

ID Width Length Bearing (true/mag) Surface Threshold Overrun Markings Lighting
05 98 ft / 30 m 6,804 ft / 2,074 m 55.69° / 54.47° ASPHALT 0 ft / 0 m 0 ft / 0 m PREC-APP EDGE THRESHOLD
23 98 ft / 30 m 6,804 ft / 2,074 m 235.69° / 234.46° ASPHALT 0 ft / 0 m 0 ft / 0 m PREC-APP EDGE THRESHOLD

Map

Weather


0- 5 10 15 20 25 30 35+ Temperature / °C

Clouds and Precipitation
Forecast for 2018-12-10 00:00 UTC. Updated 3 hours ago

Ground ~20,000 ft ~40,000 ft Winds

METAR

YNWN 100000Z AUTO 05012KT 9999 // NCD 32/15 Q1011

TAF

Not found

Frequencies

Unicom 126.70 MHz NEWMAN CTAF MULT
Warning: Do not use this data for real-world aviation or navigation. No guarantee of current accuracy is given.